< < Back
Terminal Aerodrome Forecast


Current Version              Previous Versions:   1  2  3  4  5  6  7  8  9  

Terminal Aerodrome Forecast

978
FTUS44 KOHX 300400 AAA
TAFBNA
TAF AMD
KBNA 300408Z 3004/3024 23004KT P6SM OVC050
     FM300500 23005KT 6SM -SHRA BKN050
     FM301000 32006KT P6SM SCT050=

Latest METAR

468
SAUS70 KWBC 300400 RRC
MTRBNA
METAR KBNA 300353Z 19004KT 10SM OVC050 13/04 A3010 RMK AO2 SLP193
T01280039


USA.gov is the U.S. government's official web portal to all federal, state and local government web resources and services.